Time;durP1;ratioP1;P1;durP2;ratioP2;P2;SDS_P1;SDS_P2;PMS_P1;PMS_P2;Temp;Humidity;BMP_temperature;BMP_pressure;BME280_temperature;BME280_humidity;BME280_pressure;Samples;Min_cycle;Max_cycle;Signal;HPM_P1;HPM_P2
2023/10/29 00:00:21;;;;;;;2.25;0.75;;;;;;;;;;5007262;28;20033;-76
2023/10/29 00:02:46;;;;;;;2.15;0.80;;;;;;;;;;5005339;28;20033;-76
2023/10/29 00:05:12;;;;;;;1.33;0.80;;;;;;;;;;5003212;28;20053;-76
2023/10/29 00:07:39;;;;;;;0.82;0.63;;;;;;;;;;5015308;28;20542;-77
2023/10/29 00:10:06;;;;;;;1.77;0.70;;;;;;;;;;5013208;28;20057;-76
2023/10/29 00:12:32;;;;;;;1.58;0.80;;;;;;;;;;5004597;28;20037;-77
2023/10/29 00:14:57;;;;;;;1.33;0.70;;;;;;;;;;5007060;28;20026;-76
2023/10/29 00:17:23;;;;;;;1.98;0.70;;;;;;;;;;5004471;28;20046;-76
2023/10/29 00:19:50;;;;;;;2.42;1.00;;;;;;;;;;5005989;28;20038;-77
2023/10/29 00:22:16;;;;;;;1.95;1.00;;;;;;;;;;5006099;28;20683;-77
2023/10/29 00:24:41;;;;;;;0.85;0.80;;;;;;;;;;5005722;28;20038;-77
2023/10/29 00:27:06;;;;;;;1.75;0.70;;;;;;;;;;5006833;28;20030;-77
2023/10/29 00:29:32;;;;;;;1.77;0.93;;;;;;;;;;5006680;28;20033;-77
2023/10/29 00:31:57;;;;;;;2.25;0.80;;;;;;;;;;5009342;28;20091;-77
2023/10/29 00:34:22;;;;;;;1.10;0.70;;;;;;;;;;5018801;28;20042;-77
2023/10/29 00:36:48;;;;;;;0.70;0.60;;;;;;;;;;5023175;28;20036;-76
2023/10/29 00:39:13;;;;;;;0.95;0.50;;;;;;;;;;5008452;28;20029;-76
2023/10/29 00:41:38;;;;;;;1.17;0.70;;;;;;;;;;5006302;28;20139;-76
2023/10/29 00:44:04;;;;;;;1.45;0.80;;;;;;;;;;5003936;28;20210;-76
2023/10/29 00:46:30;;;;;;;2.70;0.70;;;;;;;;;;5005293;28;20556;-76
2023/10/29 00:48:56;;;;;;;2.20;0.80;;;;;;;;;;5003210;28;20526;-76
2023/10/29 00:51:21;;;;;;;1.30;0.85;;;;;;;;;;5004415;28;20492;-76
2023/10/29 00:53:47;;;;;;;1.05;0.80;;;;;;;;;;5005109;28;20037;-77
2023/10/29 00:56:15;;;;;;;2.78;0.70;;;;;;;;;;5003509;28;20798;-76
2023/10/29 00:58:41;;;;;;;0.73;0.63;;;;;;;;;;4991131;28;20054;-77
2023/10/29 01:01:06;;;;;;;1.20;0.57;;;;;;;;;;4986014;28;20026;-78
2023/10/29 01:03:32;;;;;;;3.85;1.00;;;;;;;;;;4984207;28;20038;-75
2023/10/29 01:05:57;;;;;;;1.67;0.88;;;;;;;;;;4985643;28;20509;-76
2023/10/29 01:08:24;;;;;;;2.80;0.80;;;;;;;;;;4985508;28;20109;-75
2023/10/29 01:10:51;;;;;;;1.67;0.70;;;;;;;;;;4985402;28;20038;-75
2023/10/29 01:13:17;;;;;;;1.25;0.60;;;;;;;;;;4995720;28;20085;-76
2023/10/29 01:15:42;;;;;;;2.22;0.90;;;;;;;;;;5004851;28;20519;-77
2023/10/29 01:18:07;;;;;;;1.08;0.82;;;;;;;;;;5003691;28;20030;-76
2023/10/29 01:20:33;;;;;;;1.02;0.90;;;;;;;;;;5003171;28;20065;-76
2023/10/29 01:22:58;;;;;;;1.80;0.65;;;;;;;;;;5004873;28;20069;-76
2023/10/29 01:25:24;;;;;;;0.77;0.77;;;;;;;;;;5004941;28;20464;-76
2023/10/29 01:27:49;;;;;;;2.13;0.95;;;;;;;;;;5004897;28;20625;-76
2023/10/29 01:30:14;;;;;;;1.83;0.80;;;;;;;;;;5004911;28;20057;-76
2023/10/29 01:32:40;;;;;;;0.88;0.75;;;;;;;;;;5004525;28;20052;-76
2023/10/29 01:35:05;;;;;;;3.03;1.40;;;;;;;;;;5004484;28;20042;-77
2023/10/29 01:37:31;;;;;;;2.75;0.70;;;;;;;;;;5004869;28;20033;-77
2023/10/29 01:39:57;;;;;;;0.80;0.70;;;;;;;;;;5005048;28;20041;-77
2023/10/29 01:42:22;;;;;;;2.13;0.70;;;;;;;;;;5002718;28;20022;-77
2023/10/29 01:44:48;;;;;;;1.63;0.80;;;;;;;;;;5003449;28;20038;-77
2023/10/29 01:47:13;;;;;;;0.65;0.65;;;;;;;;;;5005151;28;20076;-77
2023/10/29 01:49:39;;;;;;;0.65;0.63;;;;;;;;;;5005775;28;20145;-76
2023/10/29 01:52:04;;;;;;;1.35;0.80;;;;;;;;;;5009690;28;20030;-76
2023/10/29 01:54:30;;;;;;;2.05;0.70;;;;;;;;;;5017137;28;20036;-77
2023/10/29 01:56:55;;;;;;;2.17;0.70;;;;;;;;;;5012471;28;20030;-77
2023/10/29 01:59:20;;;;;;;0.90;0.70;;;;;;;;;;4984877;28;20085;-77
2023/10/29 02:01:46;;;;;;;0.65;0.65;;;;;;;;;;4984349;28;20065;-76
2023/10/29 02:04:11;;;;;;;1.05;0.70;;;;;;;;;;4982424;28;20042;-77
2023/10/29 02:06:40;;;;;;;0.80;0.68;;;;;;;;;;4982606;28;20648;-77
2023/10/29 02:09:08;;;;;;;1.35;0.77;;;;;;;;;;4982371;28;20026;-77
2023/10/29 02:11:35;;;;;;;1.40;1.02;;;;;;;;;;4983960;28;20615;-77
2023/10/29 02:14:01;;;;;;;0.60;0.55;;;;;;;;;;4995750;28;20038;-77
2023/10/29 02:16:26;;;;;;;1.38;0.55;;;;;;;;;;4982212;28;20104;-76
2023/10/29 02:18:51;;;;;;;3.65;0.68;;;;;;;;;;4984130;28;20030;-76
2023/10/29 02:21:17;;;;;;;0.50;0.50;;;;;;;;;;4984186;28;20084;-76
2023/10/29 02:23:42;;;;;;;1.17;0.90;;;;;;;;;;4984096;28;20497;-76
2023/10/29 02:26:08;;;;;;;3.22;0.88;;;;;;;;;;4982158;28;20129;-76
2023/10/29 02:28:33;;;;;;;2.30;0.77;;;;;;;;;;4983917;28;20073;-76
2023/10/29 02:30:59;;;;;;;1.17;0.88;;;;;;;;;;4981021;28;20089;-76
2023/10/29 02:33:24;;;;;;;0.95;0.60;;;;;;;;;;4983913;28;20026;-76
2023/10/29 02:35:49;;;;;;;2.10;0.80;;;;;;;;;;4990120;28;20017;-76
2023/10/29 02:38:18;;;;;;;1.58;0.82;;;;;;;;;;4986684;28;20068;-76
2023/10/29 02:40:43;;;;;;;1.23;0.60;;;;;;;;;;4983780;28;20042;-76
2023/10/29 02:43:10;;;;;;;1.08;0.85;;;;;;;;;;4983986;28;20067;-76
2023/10/29 02:45:35;;;;;;;3.50;0.80;;;;;;;;;;4988746;28;20532;-76
2023/10/29 02:48:01;;;;;;;3.33;1.00;;;;;;;;;;4984579;28;20018;-76
2023/10/29 02:50:26;;;;;;;4.43;0.73;;;;;;;;;;4983728;28;20031;-76
2023/10/29 02:52:51;;;;;;;2.17;0.70;;;;;;;;;;4983726;28;20054;-76
2023/10/29 02:55:17;;;;;;;4.22;0.98;;;;;;;;;;4983918;28;20030;-76
2023/10/29 02:57:42;;;;;;;0.57;0.57;;;;;;;;;;4987387;28;20085;-75
2023/10/29 03:00:08;;;;;;;1.83;0.85;;;;;;;;;;5002359;28;20136;-76
2023/10/29 03:02:33;;;;;;;1.63;0.95;;;;;;;;;;5003795;28;20040;-76
2023/10/29 03:04:58;;;;;;;4.60;1.20;;;;;;;;;;5004240;28;20575;-76
2023/10/29 03:07:24;;;;;;;4.78;0.90;;;;;;;;;;5004337;28;20034;-76
2023/10/29 03:09:49;;;;;;;3.33;0.80;;;;;;;;;;5005094;28;20038;-76
2023/10/29 03:12:14;;;;;;;5.47;1.33;;;;;;;;;;5011891;28;20046;-76
2023/10/29 03:14:40;;;;;;;4.03;0.80;;;;;;;;;;5003579;28;20030;-76
2023/10/29 03:17:05;;;;;;;3.15;0.80;;;;;;;;;;4999105;28;20571;-76
2023/10/29 03:19:30;;;;;;;2.53;0.93;;;;;;;;;;4989031;28;20030;-76
2023/10/29 03:21:56;;;;;;;3.80;0.77;;;;;;;;;;4988053;28;20030;-76
2023/10/29 03:24:21;;;;;;;1.33;0.70;;;;;;;;;;4988246;28;20041;-77
2023/10/29 03:26:46;;;;;;;2.80;0.82;;;;;;;;;;4987409;28;20051;-76
2023/10/29 03:29:12;;;;;;;3.92;0.90;;;;;;;;;;4987245;28;20034;-76
2023/10/29 03:31:38;;;;;;;1.55;0.90;;;;;;;;;;4987381;28;20037;-77
2023/10/29 03:34:04;;;;;;;4.35;0.95;;;;;;;;;;4987637;28;20050;-77
2023/10/29 03:36:30;;;;;;;3.35;1.05;;;;;;;;;;4986998;28;20022;-77
2023/10/29 03:38:55;;;;;;;2.15;0.80;;;;;;;;;;4987340;28;20080;-77
2023/10/29 03:41:22;;;;;;;7.55;0.98;;;;;;;;;;4986911;28;20794;-77
2023/10/29 03:43:48;;;;;;;6.82;1.20;;;;;;;;;;4986304;28;20030;-77
2023/10/29 03:46:13;;;;;;;2.65;0.82;;;;;;;;;;4987380;28;20096;-77
2023/10/29 03:48:44;;;;;;;3.58;0.88;;;;;;;;;;4987030;28;20026;-77
2023/10/29 03:51:10;;;;;;;2.28;0.60;;;;;;;;;;4988076;28;20026;-77
2023/10/29 03:53:35;;;;;;;3.05;1.00;;;;;;;;;;4985602;28;20073;-77
2023/10/29 03:56:01;;;;;;;5.93;1.58;;;;;;;;;;4993254;28;20041;-77
2023/10/29 03:58:27;;;;;;;5.03;1.08;;;;;;;;;;5005618;28;20034;-77
2023/10/29 04:00:52;;;;;;;5.10;1.05;;;;;;;;;;5007622;28;20184;-77
2023/10/29 04:03:18;;;;;;;3.70;0.95;;;;;;;;;;5006420;28;20022;-77
2023/10/29 04:05:43;;;;;;;1.85;0.73;;;;;;;;;;5006052;28;20041;-77
2023/10/29 04:08:08;;;;;;;2.90;0.90;;;;;;;;;;5006394;28;20034;-77
2023/10/29 04:10:34;;;;;;;2.50;0.98;;;;;;;;;;5004932;28;20033;-76
2023/10/29 04:13:00;;;;;;;3.20;1.38;;;;;;;;;;4993992;28;20026;-76
2023/10/29 04:15:25;;;;;;;5.10;0.80;;;;;;;;;;5005982;28;20129;-77
2023/10/29 04:17:51;;;;;;;4.00;0.85;;;;;;;;;;5005014;28;20053;-76
2023/10/29 04:20:16;;;;;;;7.45;0.93;;;;;;;;;;5005699;28;20057;-76
2023/10/29 04:22:42;;;;;;;2.08;0.70;;;;;;;;;;5003650;28;20134;-76
2023/10/29 04:25:08;;;;;;;2.92;1.20;;;;;;;;;;5004813;28;20030;-76
2023/10/29 04:27:33;;;;;;;5.60;0.98;;;;;;;;;;5004541;28;20025;-76
2023/10/29 04:29:59;;;;;;;5.30;1.20;;;;;;;;;;5006195;28;20032;-76
2023/10/29 04:32:24;;;;;;;5.68;1.25;;;;;;;;;;5013333;28;20045;-76
2023/10/29 04:34:49;;;;;;;3.45;0.88;;;;;;;;;;5016917;28;20106;-76
2023/10/29 04:37:15;;;;;;;6.47;1.05;;;;;;;;;;5005585;28;20034;-76
2023/10/29 04:39:42;;;;;;;8.32;0.90;;;;;;;;;;5003937;28;20025;-76
2023/10/29 04:42:08;;;;;;;6.10;1.15;;;;;;;;;;5005564;28;20026;-77
2023/10/29 04:44:33;;;;;;;5.45;0.90;;;;;;;;;;5005097;28;20041;-77
2023/10/29 04:46:59;;;;;;;6.32;0.88;;;;;;;;;;5003374;28;20026;-76
2023/10/29 04:49:26;;;;;;;9.25;1.30;;;;;;;;;;5005208;28;20045;-76
2023/10/29 04:51:51;;;;;;;2.92;0.68;;;;;;;;;;5004407;28;20111;-76
2023/10/29 04:54:16;;;;;;;2.88;0.90;;;;;;;;;;5005600;28;20034;-76
2023/10/29 04:56:42;;;;;;;6.63;0.98;;;;;;;;;;5004811;28;20148;-77
2023/10/29 04:59:07;;;;;;;5.57;1.00;;;;;;;;;;4987673;28;20045;-76
2023/10/29 05:01:33;;;;;;;4.22;0.90;;;;;;;;;;4985669;28;20062;-77
2023/10/29 05:03:58;;;;;;;8.50;1.08;;;;;;;;;;4984829;28;20033;-76
2023/10/29 05:06:23;;;;;;;4.07;1.45;;;;;;;;;;4984978;28;20402;-76
2023/10/29 05:08:51;;;;;;;5.85;1.13;;;;;;;;;;4985816;28;20023;-76
2023/10/29 05:11:17;;;;;;;5.28;1.02;;;;;;;;;;4985231;28;20121;-76
2023/10/29 05:13:42;;;;;;;3.55;1.00;;;;;;;;;;4996863;28;20128;-76
2023/10/29 05:16:08;;;;;;;2.75;0.85;;;;;;;;;;5004503;28;20513;-76
2023/10/29 05:18:33;;;;;;;9.73;1.38;;;;;;;;;;5004588;28;20030;-76
2023/10/29 05:20:59;;;;;;;6.38;1.20;;;;;;;;;;5004734;28;20026;-76
2023/10/29 05:23:24;;;;;;;3.42;1.00;;;;;;;;;;5004665;28;20432;-76
2023/10/29 05:25:49;;;;;;;5.55;0.85;;;;;;;;;;5004196;28;20046;-77
2023/10/29 05:28:15;;;;;;;4.40;1.00;;;;;;;;;;5004163;28;20070;-76
2023/10/29 05:30:41;;;;;;;7.32;1.38;;;;;;;;;;5002118;28;20030;-76
2023/10/29 05:33:06;;;;;;;6.75;1.05;;;;;;;;;;5004945;28;20052;-76
2023/10/29 05:35:32;;;;;;;4.75;1.10;;;;;;;;;;5003851;28;20052;-76
2023/10/29 05:37:57;;;;;;;4.35;0.90;;;;;;;;;;4998980;28;20148;-75
2023/10/29 05:40:22;;;;;;;8.10;1.23;;;;;;;;;;4984758;28;20030;-76
2023/10/29 05:42:47;;;;;;;6.78;1.35;;;;;;;;;;4985243;28;20125;-76
2023/10/29 05:45:13;;;;;;;4.55;1.08;;;;;;;;;;4985522;28;20042;-76
2023/10/29 05:47:38;;;;;;;8.32;0.95;;;;;;;;;;4985376;28;20525;-77
2023/10/29 05:50:04;;;;;;;5.50;0.88;;;;;;;;;;4987726;28;20034;-77
2023/10/29 05:52:30;;;;;;;2.22;0.77;;;;;;;;;;5004063;28;20046;-77
2023/10/29 05:54:56;;;;;;;5.22;1.15;;;;;;;;;;5014775;28;20387;-76
2023/10/29 05:57:22;;;;;;;6.97;0.98;;;;;;;;;;5002699;28;20519;-77
2023/10/29 05:59:48;;;;;;;3.85;0.80;;;;;;;;;;5001552;28;20073;-77
2023/10/29 06:02:13;;;;;;;3.88;1.02;;;;;;;;;;5001123;28;20475;-77
2023/10/29 06:04:38;;;;;;;2.80;1.02;;;;;;;;;;4999153;28;20099;-77
2023/10/29 06:07:04;;;;;;;3.85;0.80;;;;;;;;;;4983460;28;20038;-77
2023/10/29 06:09:29;;;;;;;5.75;1.10;;;;;;;;;;4984655;28;20034;-77
2023/10/29 06:11:55;;;;;;;5.32;1.52;;;;;;;;;;4984859;28;20061;-77
2023/10/29 06:14:22;;;;;;;6.80;1.10;;;;;;;;;;5002383;28;20044;-77
2023/10/29 06:16:48;;;;;;;5.57;0.95;;;;;;;;;;5003729;28;20128;-77
2023/10/29 06:19:13;;;;;;;5.28;0.88;;;;;;;;;;5003588;28;20137;-77
2023/10/29 06:21:38;;;;;;;4.35;1.05;;;;;;;;;;5003425;28;20040;-77
2023/10/29 06:24:05;;;;;;;8.32;1.33;;;;;;;;;;5003686;28;20121;-78
2023/10/29 06:26:31;;;;;;;5.75;1.10;;;;;;;;;;5003098;28;20084;-77
2023/10/29 06:28:56;;;;;;;6.38;1.10;;;;;;;;;;5003660;28;20038;-77
2023/10/29 06:31:28;;;;;;;4.13;0.93;;;;;;;;;;4997917;28;20046;-77
2023/10/29 06:33:53;;;;;;;11.63;1.63;;;;;;;;;;4999892;28;20061;-77
2023/10/29 06:36:18;;;;;;;5.78;1.10;;;;;;;;;;5003920;28;20040;-77
2023/10/29 06:38:44;;;;;;;2.70;0.90;;;;;;;;;;5002345;28;20133;-77
2023/10/29 06:41:09;;;;;;;5.32;1.17;;;;;;;;;;5003422;28;20125;-77
2023/10/29 06:43:34;;;;;;;8.95;0.95;;;;;;;;;;5002968;28;20121;-77
2023/10/29 06:46:00;;;;;;;10.23;1.17;;;;;;;;;;5004832;28;20038;-78
2023/10/29 06:48:25;;;;;;;7.05;0.82;;;;;;;;;;5006358;28;20489;-77
2023/10/29 06:50:50;;;;;;;6.70;1.50;;;;;;;;;;5007981;28;20026;-76
2023/10/29 06:53:16;;;;;;;9.65;1.15;;;;;;;;;;5006116;28;20038;-77
2023/10/29 06:55:42;;;;;;;6.85;1.08;;;;;;;;;;5007640;28;20037;-77
2023/10/29 06:58:07;;;;;;;4.28;0.88;;;;;;;;;;4998677;28;20081;-77
2023/10/29 07:00:33;;;;;;;4.68;0.90;;;;;;;;;;4987728;28;20062;-77
2023/10/29 07:02:59;;;;;;;4.03;0.90;;;;;;;;;;4988211;28;20397;-77
2023/10/29 07:05:25;;;;;;;5.15;1.95;;;;;;;;;;4988158;28;20034;-77
2023/10/29 07:07:51;;;;;;;10.00;1.30;;;;;;;;;;4988548;28;20170;-77
2023/10/29 07:10:16;;;;;;;7.57;1.40;;;;;;;;;;4992114;28;20061;-77
2023/10/29 07:12:42;;;;;;;5.38;1.00;;;;;;;;;;5004833;28;20038;-77
2023/10/29 07:15:10;;;;;;;4.03;0.93;;;;;;;;;;5015107;28;20034;-77
2023/10/29 07:17:36;;;;;;;5.88;0.90;;;;;;;;;;5006776;28;20157;-77
2023/10/29 07:20:03;;;;;;;5.47;1.02;;;;;;;;;;5006337;28;20533;-77
2023/10/29 07:22:29;;;;;;;4.32;1.05;;;;;;;;;;5006739;28;20030;-76
2023/10/29 07:24:54;;;;;;;3.75;1.02;;;;;;;;;;5005460;28;20041;-77
2023/10/29 07:27:20;;;;;;;5.78;0.80;;;;;;;;;;5006558;28;20026;-77
2023/10/29 07:29:45;;;;;;;4.55;1.05;;;;;;;;;;5006853;28;20088;-77
2023/10/29 07:32:11;;;;;;;5.30;1.00;;;;;;;;;;5005753;28;20049;-76
2023/10/29 07:34:36;;;;;;;6.13;1.30;;;;;;;;;;5004877;28;20088;-76
2023/10/29 07:37:01;;;;;;;4.88;1.15;;;;;;;;;;5006317;28;20913;-76
2023/10/29 07:39:27;;;;;;;5.80;1.10;;;;;;;;;;5005255;28;20398;-76
2023/10/29 07:41:52;;;;;;;13.07;1.40;;;;;;;;;;5005088;28;20084;-75
2023/10/29 07:44:17;;;;;;;8.95;0.85;;;;;;;;;;5005209;28;20053;-74
2023/10/29 07:46:42;;;;;;;5.15;1.40;;;;;;;;;;5007219;28;20069;-75
2023/10/29 07:49:08;;;;;;;6.70;1.10;;;;;;;;;;5011109;28;20113;-75
2023/10/29 07:51:33;;;;;;;16.20;1.20;;;;;;;;;;5009388;28;20413;-75
2023/10/29 07:53:58;;;;;;;4.05;0.80;;;;;;;;;;5007161;28;20029;-75
2023/10/29 07:56:24;;;;;;;7.07;1.08;;;;;;;;;;4991008;28;20046;-75
2023/10/29 07:58:49;;;;;;;9.65;1.20;;;;;;;;;;4998201;28;20303;-75
2023/10/29 08:01:16;;;;;;;6.55;1.20;;;;;;;;;;5003888;28;20065;-75
2023/10/29 08:03:43;;;;;;;7.80;1.33;;;;;;;;;;5004409;28;20080;-75
2023/10/29 08:06:09;;;;;;;6.00;1.70;;;;;;;;;;5002045;28;20034;-75
2023/10/29 08:08:35;;;;;;;8.32;1.38;;;;;;;;;;5001926;28;20469;-74
2023/10/29 08:11:00;;;;;;;7.93;1.70;;;;;;;;;;5003565;28;20045;-75
2023/10/29 08:13:25;;;;;;;8.32;1.05;;;;;;;;;;5004200;28;20697;-75
2023/10/29 08:15:51;;;;;;;7.15;1.30;;;;;;;;;;5005223;28;20153;-76
2023/10/29 08:18:16;;;;;;;8.68;1.65;;;;;;;;;;5003923;28;20026;-75
2023/10/29 08:20:41;;;;;;;7.60;2.10;;;;;;;;;;5004032;28;20466;-76
2023/10/29 08:23:07;;;;;;;9.52;1.73;;;;;;;;;;5005451;28;20041;-76
2023/10/29 08:25:36;;;;;;;11.82;1.30;;;;;;;;;;5005899;28;20034;-76
2023/10/29 08:28:02;;;;;;;5.60;1.55;;;;;;;;;;5005860;28;20069;-76
2023/10/29 08:30:27;;;;;;;4.95;1.00;;;;;;;;;;5007703;28;20061;-76
2023/10/29 08:32:52;;;;;;;6.18;1.20;;;;;;;;;;5011556;28;20053;-76
2023/10/29 08:35:18;;;;;;;4.60;1.33;;;;;;;;;;5011045;28;20049;-75
2023/10/29 08:37:43;;;;;;;5.78;1.33;;;;;;;;;;4997887;28;20548;-75
2023/10/29 08:40:09;;;;;;;10.23;1.27;;;;;;;;;;4994565;28;20037;-75
2023/10/29 08:42:34;;;;;;;5.55;1.20;;;;;;;;;;5005530;28;20049;-75
2023/10/29 08:45:00;;;;;;;7.13;1.50;;;;;;;;;;4995429;28;20462;-75
2023/10/29 08:47:26;;;;;;;9.85;1.63;;;;;;;;;;4996732;28;20061;-75
2023/10/29 08:49:51;;;;;;;6.45;1.42;;;;;;;;;;4999759;28;20053;-75
2023/10/29 08:52:17;;;;;;;6.70;1.23;;;;;;;;;;5003196;28;20038;-75
2023/10/29 08:54:44;;;;;;;8.48;1.45;;;;;;;;;;4998790;28;20085;-75
2023/10/29 08:57:09;;;;;;;8.50;1.10;;;;;;;;;;4993775;28;20036;-75
2023/10/29 08:59:35;;;;;;;4.78;1.23;;;;;;;;;;5003324;28;20057;-75
2023/10/29 09:02:00;;;;;;;10.00;1.17;;;;;;;;;;4996640;28;20045;-76
2023/10/29 09:04:26;;;;;;;11.43;1.38;;;;;;;;;;4999964;28;20033;-75
2023/10/29 09:06:51;;;;;;;9.13;1.23;;;;;;;;;;4998453;28;20072;-76
2023/10/29 09:09:17;;;;;;;13.82;1.50;;;;;;;;;;4993027;28;20045;-76
2023/10/29 09:11:44;;;;;;;11.00;1.10;;;;;;;;;;4998909;28;20196;-76
2023/10/29 09:14:11;;;;;;;5.93;1.35;;;;;;;;;;4987807;28;20038;-76
2023/10/29 09:16:36;;;;;;;4.63;1.20;;;;;;;;;;4984250;28;20061;-76
2023/10/29 09:19:02;;;;;;;4.28;1.08;;;;;;;;;;4995497;28;20065;-75
2023/10/29 09:21:28;;;;;;;12.57;1.48;;;;;;;;;;4996059;28;20044;-75
2023/10/29 09:23:53;;;;;;;6.93;1.33;;;;;;;;;;4998969;28;20026;-75
2023/10/29 09:26:19;;;;;;;8.73;2.85;;;;;;;;;;5001646;28;20038;-75
2023/10/29 09:28:44;;;;;;;4.63;1.20;;;;;;;;;;5002172;28;20414;-75
2023/10/29 09:31:16;;;;;;;7.10;0.98;;;;;;;;;;4999379;28;20091;-75
2023/10/29 09:33:41;;;;;;;3.38;0.90;;;;;;;;;;5000504;28;20033;-75
2023/10/29 09:36:07;;;;;;;5.97;1.48;;;;;;;;;;5001926;28;21202;-75
2023/10/29 09:38:33;;;;;;;8.40;1.35;;;;;;;;;;5000490;28;20473;-74
2023/10/29 09:40:58;;;;;;;4.53;0.77;;;;;;;;;;4994170;28;20048;-75
2023/10/29 09:43:30;;;;;;;5.38;1.27;;;;;;;;;;4995748;28;20072;-76
2023/10/29 09:45:56;;;;;;;2.58;0.70;;;;;;;;;;4984641;28;20069;-75
2023/10/29 09:48:23;;;;;;;4.68;1.17;;;;;;;;;;4984270;28;20054;-75
2023/10/29 09:50:49;;;;;;;4.75;1.17;;;;;;;;;;4991279;28;20050;-74
2023/10/29 09:53:15;;;;;;;4.05;1.17;;;;;;;;;;4995234;28;20026;-74
2023/10/29 09:55:40;;;;;;;6.07;1.60;;;;;;;;;;4985577;28;20049;-74
2023/10/29 09:58:06;;;;;;;4.32;1.17;;;;;;;;;;4988578;28;20038;-74
2023/10/29 10:00:32;;;;;;;8.75;1.23;;;;;;;;;;5002006;28;20029;-74
2023/10/29 10:02:59;;;;;;;7.90;2.15;;;;;;;;;;5002746;28;20037;-75
2023/10/29 10:05:27;;;;;;;7.50;1.55;;;;;;;;;;5000679;28;20041;-75
2023/10/29 10:07:53;;;;;;;9.75;1.60;;;;;;;;;;5001940;28;20061;-75
2023/10/29 10:10:21;;;;;;;5.97;1.23;;;;;;;;;;4996109;28;20579;-75
2023/10/29 10:12:51;;;;;;;6.13;1.10;;;;;;;;;;4990727;28;20069;-75
2023/10/29 10:15:18;;;;;;;8.32;1.45;;;;;;;;;;4995432;28;20038;-75
2023/10/29 10:17:56;;;;;;;6.80;1.30;;;;;;;;;;5000153;28;20056;-75
2023/10/29 10:20:22;;;;;;;6.95;1.30;;;;;;;;;;4997731;28;20054;-75
2023/10/29 10:23:01;;;;;;;7.05;1.08;;;;;;;;;;4998007;28;20060;-75
2023/10/29 10:25:28;;;;;;;6.18;1.17;;;;;;;;;;4991458;28;20050;-75
2023/10/29 10:27:56;;;;;;;6.90;1.83;;;;;;;;;;4990833;28;20069;-78
2023/10/29 10:30:33;;;;;;;4.32;1.08;;;;;;;;;;4990859;28;20091;-76
2023/10/29 10:33:14;;;;;;;9.00;1.13;;;;;;;;;;4994990;28;20046;-76
2023/10/29 10:35:43;;;;;;;6.65;1.40;;;;;;;;;;5000045;28;20699;-76
2023/10/29 10:38:09;;;;;;;7.78;1.65;;;;;;;;;;4993579;28;20046;-74
2023/10/29 10:40:35;;;;;;;5.15;0.88;;;;;;;;;;4995370;28;20546;-76
2023/10/29 10:43:01;;;;;;;10.45;1.15;;;;;;;;;;4996782;28;20509;-76
2023/10/29 10:45:28;;;;;;;9.75;1.48;;;;;;;;;;4998522;28;20034;-76
2023/10/29 10:47:58;;;;;;;11.00;1.77;;;;;;;;;;5001042;28;20123;-75
2023/10/29 10:50:27;;;;;;;4.32;0.93;;;;;;;;;;4999338;28;20447;-75
2023/10/29 10:52:54;;;;;;;4.80;1.17;;;;;;;;;;5000767;28;20044;-75
2023/10/29 10:55:20;;;;;;;6.45;1.10;;;;;;;;;;5000564;28;20030;-75
2023/10/29 10:57:49;;;;;;;7.78;1.50;;;;;;;;;;4997179;28;20050;-75
2023/10/29 11:00:16;;;;;;;4.47;1.10;;;;;;;;;;4988412;28;20064;-76
2023/10/29 11:02:45;;;;;;;5.55;1.40;;;;;;;;;;5003419;28;20046;-75
2023/10/29 11:05:12;;;;;;;5.10;1.50;;;;;;;;;;4985235;28;20039;-74
2023/10/29 11:07:40;;;;;;;13.45;1.50;;;;;;;;;;5000445;28;20042;-74
2023/10/29 11:10:08;;;;;;;6.10;1.20;;;;;;;;;;5006366;28;20026;-74
2023/10/29 11:12:34;;;;;;;7.80;1.15;;;;;;;;;;5006405;28;20556;-75
2023/10/29 11:15:15;;;;;;;3.85;0.75;;;;;;;;;;5005573;28;20028;-75
2023/10/29 11:18:01;;;;;;;5.60;1.40;;;;;;;;;;5004751;28;20038;-75
2023/10/29 11:20:38;;;;;;;3.22;0.90;;;;;;;;;;5001044;28;20026;-74
2023/10/29 11:23:15;;;;;;;2.88;0.90;;;;;;;;;;5004264;28;20042;-75
2023/10/29 11:25:41;;;;;;;4.70;0.90;;;;;;;;;;5001591;28;20062;-74
2023/10/29 11:28:26;;;;;;;5.55;1.98;;;;;;;;;;4990085;28;20129;-74
2023/10/29 11:31:24;;;;;;;6.82;1.50;;;;;;;;;;4982885;28;20062;-74
2023/10/29 11:33:56;;;;;;;6.53;1.58;;;;;;;;;;4985365;28;20094;-75
2023/10/29 11:36:38;;;;;;;5.75;1.10;;;;;;;;;;4988570;28;20046;-74
2023/10/29 11:39:15;;;;;;;7.90;1.02;;;;;;;;;;5011979;28;20854;-74
2023/10/29 11:41:42;;;;;;;2.00;0.93;;;;;;;;;;5005751;28;20034;-74
2023/10/29 11:44:17;;;;;;;4.18;1.38;;;;;;;;;;5007703;28;20042;-74
2023/10/29 11:46:55;;;;;;;7.45;2.10;;;;;;;;;;5012433;28;20045;-75
2023/10/29 11:49:24;;;;;;;4.50;1.38;;;;;;;;;;5002962;28;20061;-75
2023/10/29 11:52:03;;;;;;;5.63;1.40;;;;;;;;;;5003825;28;20038;-74
2023/10/29 11:54:32;;;;;;;4.90;1.48;;;;;;;;;;5007237;28;20022;-75
2023/10/29 11:56:58;;;;;;;4.20;1.02;;;;;;;;;;5006149;28;20022;-75
2023/10/29 11:59:24;;;;;;;3.05;1.10;;;;;;;;;;4998187;28;20070;-75
2023/10/29 12:01:50;;;;;;;3.80;1.50;;;;;;;;;;4986014;28;20046;-74
2023/10/29 12:04:16;;;;;;;4.35;1.90;;;;;;;;;;4987728;28;20058;-75
2023/10/29 12:06:43;;;;;;;4.50;1.10;;;;;;;;;;4985220;28;21034;-76
2023/10/29 12:09:22;;;;;;;4.47;1.02;;;;;;;;;;4989200;28;20030;-75
2023/10/29 12:11:52;;;;;;;6.15;1.20;;;;;;;;;;4996657;28;20059;-75
2023/10/29 12:14:46;;;;;;;2.33;1.08;;;;;;;;;;4991990;28;20133;-75
2023/10/29 12:17:13;;;;;;;2.85;0.80;;;;;;;;;;4978856;28;20058;-75
2023/10/29 12:19:46;;;;;;;2.60;0.95;;;;;;;;;;4965711;28;20035;-75
2023/10/29 12:22:21;;;;;;;3.87;1.03;;;;;;;;;;4964666;28;20054;-75
2023/10/29 12:24:53;;;;;;;3.97;1.05;;;;;;;;;;4981090;28;20708;-75
2023/10/29 12:27:21;;;;;;;5.20;1.27;;;;;;;;;;4989876;28;20045;-75
2023/10/29 12:29:47;;;;;;;3.13;0.88;;;;;;;;;;4971937;28;20042;-75
2023/10/29 12:32:22;;;;;;;2.83;0.70;;;;;;;;;;4961396;28;20039;-75
2023/10/29 12:34:52;;;;;;;1.02;0.60;;;;;;;;;;4963989;28;20433;-76
2023/10/29 12:37:29;;;;;;;5.13;1.20;;;;;;;;;;4962991;28;20073;-76
2023/10/29 12:39:56;;;;;;;1.83;0.77;;;;;;;;;;4962084;28;20057;-76
2023/10/29 12:42:51;;;;;;;4.15;0.90;;;;;;;;;;4962806;28;20037;-76
2023/10/29 12:45:28;;;;;;;1.08;0.60;;;;;;;;;;4979376;28;20057;-76
2023/10/29 12:48:16;;;;;;;2.28;0.77;;;;;;;;;;4982179;28;20066;-75
2023/10/29 12:50:50;;;;;;;2.05;0.75;;;;;;;;;;4982738;28;20038;-76
2023/10/29 12:53:31;;;;;;;4.10;1.08;;;;;;;;;;4982709;28;20094;-75
2023/10/29 12:55:59;;;;;;;2.85;0.93;;;;;;;;;;4964901;28;20044;-76
2023/10/29 12:58:26;;;;;;;2.42;0.90;;;;;;;;;;4991237;28;20055;-75
2023/10/29 13:00:52;;;;;;;1.67;0.93;;;;;;;;;;5000777;28;20037;-76
2023/10/29 13:03:18;;;;;;;1.67;0.88;;;;;;;;;;5002264;28;20030;-76
2023/10/29 13:05:43;;;;;;;1.73;0.90;;;;;;;;;;5002391;28;20049;-76
2023/10/29 13:08:11;;;;;;;1.63;0.90;;;;;;;;;;5001654;28;20999;-76
2023/10/29 13:10:36;;;;;;;1.50;0.90;;;;;;;;;;5002517;28;20041;-76
2023/10/29 13:13:02;;;;;;;2.13;0.85;;;;;;;;;;5001506;28;20541;-76
2023/10/29 13:15:28;;;;;;;4.88;0.90;;;;;;;;;;5002350;28;20088;-75
2023/10/29 13:17:54;;;;;;;1.15;0.80;;;;;;;;;;4986031;28;20026;-76
2023/10/29 13:20:20;;;;;;;3.10;0.70;;;;;;;;;;5002236;28;20507;-76
2023/10/29 13:22:46;;;;;;;2.15;0.70;;;;;;;;;;5002476;28;20121;-75
2023/10/29 13:25:12;;;;;;;4.70;0.98;;;;;;;;;;4984107;28;20033;-75
2023/10/29 13:27:39;;;;;;;2.15;1.23;;;;;;;;;;5000701;28;20049;-76
2023/10/29 13:30:07;;;;;;;1.83;0.73;;;;;;;;;;5005621;28;20041;-75
2023/10/29 13:32:33;;;;;;;1.70;0.70;;;;;;;;;;5016247;28;20042;-75
2023/10/29 13:34:59;;;;;;;0.90;0.73;;;;;;;;;;5007630;28;20050;-75
2023/10/29 13:37:26;;;;;;;3.33;1.00;;;;;;;;;;4998741;28;20050;-75
2023/10/29 13:39:52;;;;;;;1.35;0.82;;;;;;;;;;5001419;28;20171;-75
2023/10/29 13:42:18;;;;;;;2.08;0.73;;;;;;;;;;5001994;28;20436;-75
2023/10/29 13:44:44;;;;;;;2.20;0.90;;;;;;;;;;5001673;28;20196;-74
2023/10/29 13:47:09;;;;;;;1.23;0.80;;;;;;;;;;5001780;28;20513;-74
2023/10/29 13:49:34;;;;;;;1.67;0.70;;;;;;;;;;5001344;28;20863;-75
2023/10/29 13:52:00;;;;;;;1.73;0.70;;;;;;;;;;5001073;28;20187;-75
2023/10/29 13:54:26;;;;;;;1.95;0.90;;;;;;;;;;4991158;28;20030;-74
2023/10/29 13:56:51;;;;;;;2.13;0.70;;;;;;;;;;4981521;28;20022;-75
2023/10/29 13:59:16;;;;;;;1.20;0.70;;;;;;;;;;5012685;28;20050;-74
2023/10/29 14:01:42;;;;;;;1.95;1.00;;;;;;;;;;5001624;28;20149;-75
2023/10/29 14:04:08;;;;;;;1.23;0.60;;;;;;;;;;4996013;28;20429;-75
2023/10/29 14:06:33;;;;;;;0.60;0.60;;;;;;;;;;4977885;28;20585;-75
2023/10/29 14:08:59;;;;;;;1.95;0.70;;;;;;;;;;4996445;28;20413;-75
2023/10/29 14:11:25;;;;;;;3.45;1.10;;;;;;;;;;5000615;28;20048;-75
2023/10/29 14:13:51;;;;;;;1.80;0.63;;;;;;;;;;4970618;28;20042;-75
2023/10/29 14:16:16;;;;;;;0.70;0.55;;;;;;;;;;4979279;28;20045;-76
2023/10/29 14:18:42;;;;;;;1.63;0.75;;;;;;;;;;4984559;28;20600;-76
2023/10/29 14:21:08;;;;;;;2.38;0.70;;;;;;;;;;4979377;28;20049;-75
2023/10/29 14:23:33;;;;;;;2.70;0.70;;;;;;;;;;4981791;28;20350;-75
2023/10/29 14:25:58;;;;;;;1.10;0.63;;;;;;;;;;4996974;28;20034;-75
2023/10/29 14:28:24;;;;;;;4.68;1.08;;;;;;;;;;4981673;28;20084;-75
2023/10/29 14:30:49;;;;;;;1.23;0.70;;;;;;;;;;4980573;28;20060;-75
2023/10/29 14:33:14;;;;;;;1.58;0.70;;;;;;;;;;4981948;28;20100;-75
2023/10/29 14:35:40;;;;;;;2.78;0.70;;;;;;;;;;4982023;28;20046;-76
2023/10/29 14:38:06;;;;;;;2.22;0.80;;;;;;;;;;4980210;28;20037;-76
2023/10/29 14:40:31;;;;;;;1.35;0.70;;;;;;;;;;4982514;28;20030;-75